Time;durP1;ratioP1;P1;durP2;ratioP2;P2;SDS_P1;SDS_P2;PMS_P1;PMS_P2;Temp;Humidity;BMP_temperature;BMP_pressure;BME280_temperature;BME280_humidity;BME280_pressure;Samples;Min_cycle;Max_cycle;Signal;HPM_P1;HPM_P2
2022/02/17 00:00:33;;;;;;;0.38;0.32;;;13.90;99.90;;;;;;5012361;28;20033;-46
2022/02/17 00:02:59;;;;;;;0.40;0.40;;;13.90;99.90;;;;;;5012552;28;20022;-47
2022/02/17 00:05:25;;;;;;;0.25;0.25;;;13.90;99.90;;;;;;5012546;28;20481;-48
2022/02/17 00:07:51;;;;;;;0.70;0.52;;;13.90;99.90;;;;;;5012974;28;20025;-45
2022/02/17 00:10:18;;;;;;;0.40;0.40;;;13.90;99.90;;;;;;5012752;28;20030;-46
2022/02/17 00:12:44;;;;;;;0.20;0.20;;;13.90;99.90;;;;;;5011131;28;20026;-48
2022/02/17 00:15:10;;;;;;;0.30;0.30;;;13.90;99.90;;;;;;5012442;28;20404;-46
2022/02/17 00:17:36;;;;;;;0.38;0.38;;;13.80;99.90;;;;;;5035010;22;20505;-42
2022/02/17 00:20:03;;;;;;;0.50;0.50;;;13.80;99.90;;;;;;5012504;28;20030;-47
2022/02/17 00:22:28;;;;;;;0.68;0.55;;;13.80;99.90;;;;;;5012442;28;20233;-47
2022/02/17 00:24:54;;;;;;;0.43;0.43;;;13.80;99.90;;;;;;5010791;28;20104;-49
2022/02/17 00:27:19;;;;;;;0.57;0.57;;;13.80;99.90;;;;;;5012179;28;20105;-47
2022/02/17 00:29:46;;;;;;;0.55;0.50;;;13.80;99.90;;;;;;5012327;28;20029;-47
2022/02/17 00:32:11;;;;;;;0.50;0.50;;;13.70;99.90;;;;;;5012294;28;20029;-47
2022/02/17 00:34:37;;;;;;;0.75;0.50;;;13.70;99.90;;;;;;5012096;28;20105;-46
2022/02/17 00:37:03;;;;;;;0.52;0.52;;;13.70;99.90;;;;;;5011284;28;20030;-41
2022/02/17 00:39:30;;;;;;;0.47;0.38;;;13.70;99.90;;;;;;5012396;28;20022;-45
2022/02/17 00:41:56;;;;;;;0.60;0.60;;;13.80;99.90;;;;;;5012443;28;20432;-48
2022/02/17 00:44:21;;;;;;;0.50;0.50;;;13.80;99.90;;;;;;5010465;28;20030;-51
2022/02/17 00:46:48;;;;;;;0.50;0.50;;;13.80;99.90;;;;;;5011631;28;20026;-41
2022/02/17 00:49:14;;;;;;;1.50;0.63;;;13.80;99.90;;;;;;5012486;28;20080;-45
2022/02/17 00:51:40;;;;;;;1.67;0.80;;;13.90;99.90;;;;;;5011340;28;20026;-45
2022/02/17 00:54:05;;;;;;;1.35;0.77;;;13.90;99.90;;;;;;5011968;28;20026;-45
2022/02/17 00:56:31;;;;;;;0.40;0.40;;;13.90;99.90;;;;;;5012223;28;20053;-42
2022/02/17 00:58:57;;;;;;;0.68;0.50;;;13.80;99.90;;;;;;5012243;28;20442;-46
2022/02/17 01:01:22;;;;;;;0.38;0.38;;;13.80;99.90;;;;;;5010540;28;20030;-46
2022/02/17 01:03:48;;;;;;;0.30;0.30;;;13.80;99.90;;;;;;5010699;28;20441;-47
2022/02/17 01:06:13;;;;;;;2.75;0.40;;;13.80;99.90;;;;;;5012834;28;20028;-47
2022/02/17 01:08:39;;;;;;;1.73;0.30;;;13.80;99.90;;;;;;5011944;28;20026;-50
2022/02/17 01:11:04;;;;;;;0.35;0.35;;;13.80;99.90;;;;;;5012234;28;20374;-45
2022/02/17 01:13:30;;;;;;;0.30;0.30;;;13.80;99.90;;;;;;5012031;28;20026;-45
2022/02/17 01:15:55;;;;;;;0.40;0.40;;;13.80;99.90;;;;;;5012003;28;20118;-43
2022/02/17 01:18:21;;;;;;;0.40;0.40;;;13.80;99.90;;;;;;5011989;28;20405;-48
2022/02/17 01:20:47;;;;;;;0.30;0.30;;;13.70;99.90;;;;;;5011806;28;20217;-52
2022/02/17 01:23:13;;;;;;;0.82;0.40;;;13.80;99.90;;;;;;5011272;28;20026;-47
2022/02/17 01:25:39;;;;;;;0.30;0.30;;;13.80;99.90;;;;;;5011645;28;20087;-42
2022/02/17 01:28:04;;;;;;;1.67;0.50;;;13.80;99.90;;;;;;5011668;28;20022;-50
2022/02/17 01:30:30;;;;;;;0.50;0.50;;;13.80;99.90;;;;;;5011658;28;20389;-50
2022/02/17 01:32:56;;;;;;;0.30;0.30;;;13.80;99.90;;;;;;5011257;28;20018;-48
2022/02/17 01:35:21;;;;;;;0.30;0.30;;;13.80;99.90;;;;;;5011598;28;20489;-47
2022/02/17 01:37:47;;;;;;;0.55;0.30;;;13.70;99.90;;;;;;5011329;28;20112;-45
2022/02/17 01:40:13;;;;;;;0.30;0.30;;;13.70;99.90;;;;;;5011765;28;20429;-54
2022/02/17 01:42:39;;;;;;;0.30;0.30;;;13.80;99.90;;;;;;5011574;28;20509;-45
2022/02/17 01:45:07;;;;;;;0.80;0.40;;;13.70;99.90;;;;;;5010137;28;20026;-51
2022/02/17 01:47:33;;;;;;;1.63;0.75;;;13.80;99.90;;;;;;5011448;28;20017;-50
2022/02/17 01:49:58;;;;;;;0.40;0.40;;;13.60;99.90;;;;;;5011509;28;20056;-48
2022/02/17 01:52:24;;;;;;;0.68;0.68;;;13.60;99.90;;;;;;5011167;28;20032;-50
2022/02/17 01:54:49;;;;;;;1.40;0.50;;;13.50;99.90;;;;;;5011128;28;20061;-43
2022/02/17 01:57:20;;;;;;;0.40;0.40;;;13.50;99.90;;;;;;5011266;28;20030;-49
2022/02/17 01:59:46;;;;;;;0.90;0.70;;;13.50;99.90;;;;;;5014209;28;20481;-46
2022/02/17 02:02:12;;;;;;;0.50;0.50;;;13.50;99.90;;;;;;5014647;28;20037;-51
2022/02/17 02:04:38;;;;;;;0.45;0.45;;;13.50;99.90;;;;;;5014697;28;20062;-47
2022/02/17 02:07:08;;;;;;;0.45;0.45;;;13.50;99.90;;;;;;5014994;28;20064;-43
2022/02/17 02:09:33;;;;;;;1.13;0.50;;;13.50;99.90;;;;;;5014961;28;20022;-47
2022/02/17 02:11:59;;;;;;;1.38;1.17;;;13.40;99.90;;;;;;5014856;28;20068;-48
2022/02/17 02:14:25;;;;;;;0.60;0.60;;;13.30;99.90;;;;;;5014715;28;20030;-51
2022/02/17 02:16:52;;;;;;;0.70;0.70;;;13.20;99.90;;;;;;5014445;28;20065;-43
2022/02/17 02:19:22;;;;;;;0.95;0.65;;;13.10;99.90;;;;;;5014889;28;20030;-48
2022/02/17 02:21:47;;;;;;;1.85;0.60;;;13.00;99.90;;;;;;5014664;28;20468;-48
2022/02/17 02:24:13;;;;;;;2.60;0.57;;;13.00;99.90;;;;;;5014329;28;20022;-50
2022/02/17 02:26:38;;;;;;;1.88;0.55;;;13.00;99.90;;;;;;5014932;28;20428;-46
2022/02/17 02:29:04;;;;;;;0.60;0.60;;;13.10;99.90;;;;;;5014475;28;20481;-44
2022/02/17 02:31:29;;;;;;;0.85;0.82;;;13.10;99.90;;;;;;5014748;28;20358;-45
2022/02/17 02:33:55;;;;;;;1.63;0.73;;;13.10;99.90;;;;;;5014116;28;20034;-53
2022/02/17 02:36:21;;;;;;;1.95;1.00;;;13.00;99.90;;;;;;5014423;28;20034;-48
2022/02/17 02:38:46;;;;;;;1.30;1.30;;;12.90;99.90;;;;;;5013033;28;20022;-47
2022/02/17 02:41:12;;;;;;;0.90;0.90;;;12.90;99.90;;;;;;5014503;28;20084;-48
2022/02/17 02:43:38;;;;;;;1.20;0.90;;;12.90;99.90;;;;;;5013937;28;20034;-50
2022/02/17 02:46:05;;;;;;;1.15;1.05;;;12.90;99.90;;;;;;5014014;28;20037;-45
2022/02/17 02:48:31;;;;;;;2.00;0.85;;;12.90;99.90;;;;;;5014205;28;20040;-45
2022/02/17 02:50:56;;;;;;;2.17;0.73;;;13.00;99.90;;;;;;5014211;28;20397;-51
2022/02/17 02:53:22;;;;;;;4.57;1.10;;;13.00;99.90;;;;;;5013717;28;20033;-53
2022/02/17 02:55:49;;;;;;;1.00;1.00;;;13.00;99.90;;;;;;5013856;28;20034;-43
2022/02/17 02:58:16;;;;;;;1.48;0.85;;;13.00;99.90;;;;;;5014165;28;20033;-50
2022/02/17 03:00:43;;;;;;;1.23;0.82;;;13.00;99.90;;;;;;5013344;28;20504;-51
2022/02/17 03:03:09;;;;;;;0.95;0.80;;;12.90;99.90;;;;;;5013862;28;20026;-49
2022/02/17 03:05:35;;;;;;;1.85;1.00;;;12.80;99.90;;;;;;5013888;28;20022;-44
2022/02/17 03:08:02;;;;;;;0.20;0.20;;;12.80;99.90;;;;;;5014283;28;20037;-47
2022/02/17 03:10:28;;;;;;;0.35;0.35;;;12.80;99.90;;;;;;5013334;28;20116;-48
2022/02/17 03:12:54;;;;;;;2.15;0.30;;;12.80;99.90;;;;;;5013195;28;20397;-47
2022/02/17 03:15:21;;;;;;;1.45;0.20;;;12.80;99.90;;;;;;5013749;28;20034;-46
2022/02/17 03:17:47;;;;;;;0.32;0.20;;;12.80;99.90;;;;;;5013494;28;20497;-44
2022/02/17 03:20:13;;;;;;;0.30;0.30;;;12.80;99.90;;;;;;5013620;28;20026;-47
2022/02/17 03:22:40;;;;;;;0.43;0.20;;;12.80;99.90;;;;;;5013394;28;20536;-52
2022/02/17 03:25:07;;;;;;;2.05;0.90;;;12.90;99.90;;;;;;5013197;28;20026;-52
2022/02/17 03:27:33;;;;;;;1.02;0.30;;;12.90;99.90;;;;;;5013137;28;20105;-46
2022/02/17 03:29:59;;;;;;;0.35;0.20;;;12.90;99.90;;;;;;5013335;28;20065;-46
2022/02/17 03:32:24;;;;;;;4.70;0.70;;;12.90;99.90;;;;;;5013251;28;20049;-48
2022/02/17 03:34:50;;;;;;;3.00;0.70;;;13.10;99.90;;;;;;5013011;28;20054;-50
2022/02/17 03:37:15;;;;;;;2.45;0.60;;;13.20;99.90;;;;;;5013139;28;20490;-44
2022/02/17 03:39:41;;;;;;;8.35;1.05;;;13.30;99.90;;;;;;5011821;28;20030;-43
2022/02/17 03:42:07;;;;;;;2.25;0.70;;;13.30;99.90;;;;;;5013142;28;20014;-49
2022/02/17 03:44:33;;;;;;;1.90;0.57;;;13.30;99.90;;;;;;5012997;28;20026;-47
2022/02/17 03:46:58;;;;;;;2.30;0.90;;;13.30;99.90;;;;;;5013574;28;20069;-39
2022/02/17 03:49:23;;;;;;;4.57;0.85;;;13.10;99.90;;;;;;5013279;28;20034;-44
2022/02/17 03:51:50;;;;;;;1.35;0.68;;;13.10;99.90;;;;;;5013435;28;20473;-48
2022/02/17 03:54:15;;;;;;;3.17;0.70;;;13.00;99.90;;;;;;5011612;28;20025;-48
2022/02/17 03:56:41;;;;;;;1.38;0.82;;;13.00;99.90;;;;;;5012692;28;20041;-44
2022/02/17 03:59:08;;;;;;;4.15;0.70;;;12.90;99.90;;;;;;5012867;28;20489;-43
2022/02/17 04:01:35;;;;;;;7.40;1.48;;;12.90;99.90;;;;;;5012729;28;20066;-51
2022/02/17 04:04:02;;;;;;;3.47;1.15;;;12.90;99.90;;;;;;5012423;28;20164;-44
2022/02/17 04:06:28;;;;;;;2.72;1.13;;;12.90;99.90;;;;;;5012551;28;20030;-50
2022/02/17 04:08:53;;;;;;;5.13;1.27;;;13.00;99.90;;;;;;5012641;28;20142;-42
2022/02/17 04:11:19;;;;;;;6.65;1.65;;;13.00;99.10;;;;;;5012523;28;20030;-47
2022/02/17 04:13:44;;;;;;;9.52;1.60;;;13.00;99.40;;;;;;5012158;28;20509;-47
2022/02/17 04:16:10;;;;;;;6.53;1.50;;;13.00;99.10;;;;;;5012237;28;20052;-46
2022/02/17 04:18:35;;;;;;;5.78;1.45;;;12.90;99.70;;;;;;5012539;28;20033;-47
2022/02/17 04:21:01;;;;;;;10.13;2.67;;;12.90;98.90;;;;;;5012218;28;20026;-49
2022/02/17 04:23:27;;;;;;;3.92;1.30;;;12.80;99.50;;;;;;5011126;28;20444;-47
2022/02/17 04:25:52;;;;;;;9.23;2.05;;;12.70;99.70;;;;;;5012195;28;20024;-50
2022/02/17 04:28:18;;;;;;;5.53;1.60;;;12.70;99.80;;;;;;5012184;28;20056;-45
2022/02/17 04:30:43;;;;;;;7.25;1.95;;;12.60;99.60;;;;;;5012428;28;20056;-45
2022/02/17 04:33:09;;;;;;;10.63;1.98;;;12.50;99.30;;;;;;5011816;28;20053;-49
2022/02/17 04:35:34;;;;;;;5.45;1.90;;;12.50;99.00;;;;;;5012510;28;20116;-41
2022/02/17 04:38:00;;;;;;;11.02;2.40;;;12.40;98.40;;;;;;5011705;28;20045;-45
2022/02/17 04:43:10;;;;;;;11.98;2.65;;;12.40;98.30;;;;;;5011711;28;20048;-47
2022/02/17 04:45:36;;;;;;;11.02;1.70;;;12.40;98.60;;;;;;5011897;28;20406;-48
2022/02/17 04:48:06;;;;;;;8.10;2.15;;;12.30;98.50;;;;;;5011767;28;20025;-47
2022/02/17 04:50:32;;;;;;;8.43;2.15;;;12.30;97.30;;;;;;5011798;28;20034;-45
2022/02/17 04:52:58;;;;;;;6.18;1.80;;;12.30;97.40;;;;;;5011588;28;20060;-49
2022/02/17 04:55:23;;;;;;;12.48;2.67;;;12.30;97.60;;;;;;5011754;28;20542;-44
2022/02/17 04:57:49;;;;;;;6.45;2.20;;;12.30;97.90;;;;;;5011553;28;20037;-44
2022/02/17 05:00:15;;;;;;;6.82;1.95;;;12.30;98.10;;;;;;5011650;28;20029;-45
2022/02/17 05:02:40;;;;;;;9.48;2.10;;;12.30;98.00;;;;;;5010950;28;20151;-44
2022/02/17 05:05:06;;;;;;;13.60;2.20;;;12.30;98.30;;;;;;5011561;28;20485;-45
2022/02/17 05:07:32;;;;;;;10.73;3.10;;;12.20;98.80;;;;;;5011535;28;20458;-45
2022/02/17 05:09:57;;;;;;;9.88;1.88;;;12.20;99.20;;;;;;5011744;28;20065;-49
2022/02/17 05:12:23;;;;;;;7.07;1.63;;;12.10;99.80;;;;;;5011671;28;20096;-48
2022/02/17 05:14:48;;;;;;;9.15;2.58;;;12.10;99.90;;;;;;5011240;28;20061;-45
2022/02/17 05:17:14;;;;;;;11.02;2.17;;;12.10;99.90;;;;;;5011114;28;20037;-47
2022/02/17 05:19:39;;;;;;;13.30;2.15;;;12.10;99.90;;;;;;5011542;28;20101;-46
2022/02/17 05:22:05;;;;;;;11.48;2.25;;;12.00;99.90;;;;;;5011503;28;20044;-45
2022/02/17 05:24:31;;;;;;;14.25;3.78;;;12.00;99.90;;;;;;5011318;28;20105;-45
2022/02/17 05:26:56;;;;;;;15.23;2.67;;;12.00;99.90;;;;;;5011462;28;20098;-45
2022/02/17 05:29:22;;;;;;;10.45;2.90;;;12.00;99.90;;;;;;5011395;28;20077;-49
2022/02/17 05:31:48;;;;;;;12.43;2.95;;;11.90;99.90;;;;;;5012223;28;20056;-44
2022/02/17 05:34:14;;;;;;;10.57;2.80;;;11.90;99.90;;;;;;5013410;28;20030;-45
2022/02/17 05:36:40;;;;;;;15.50;3.47;;;11.90;99.40;;;;;;5015550;28;20030;-47
2022/02/17 05:39:06;;;;;;;17.20;2.55;;;11.90;99.30;;;;;;5015380;28;20025;-47
2022/02/17 05:41:32;;;;;;;11.50;2.78;;;11.90;99.10;;;;;;5015348;28;20022;-46
2022/02/17 05:43:58;;;;;;;16.67;3.47;;;11.80;98.70;;;;;;5014919;28;20026;-47
2022/02/17 05:46:24;;;;;;;17.45;4.97;;;11.80;98.80;;;;;;5015175;28;20044;-47
2022/02/17 05:48:49;;;;;;;17.45;3.42;;;11.80;99.00;;;;;;5014197;28;20030;-45
2022/02/17 05:51:19;;;;;;;9.25;2.80;;;11.70;99.00;;;;;;5015275;28;20030;-45
2022/02/17 05:53:45;;;;;;;16.15;2.63;;;11.70;99.50;;;;;;5013894;28;20049;-46
2022/02/17 05:56:10;;;;;;;12.95;2.95;;;11.70;99.90;;;;;;5015144;28;20026;-44
2022/02/17 05:58:36;;;;;;;14.02;3.45;;;11.60;99.40;;;;;;5015314;28;20022;-48
2022/02/17 06:01:03;;;;;;;17.00;3.95;;;11.60;99.40;;;;;;5014888;28;20026;-45
2022/02/17 06:03:29;;;;;;;19.55;3.75;;;11.70;99.60;;;;;;5014703;28;20429;-46
2022/02/17 06:05:55;;;;;;;15.63;3.17;;;11.70;99.70;;;;;;5014849;28;20164;-45
2022/02/17 06:08:21;;;;;;;17.42;3.40;;;11.70;99.80;;;;;;5015014;28;20538;-47
2022/02/17 06:10:47;;;;;;;14.80;5.13;;;11.70;99.60;;;;;;5014975;28;20017;-44
2022/02/17 06:13:12;;;;;;;20.67;3.38;;;11.70;99.60;;;;;;5014568;28;20482;-45
2022/02/17 06:15:38;;;;;;;18.88;4.22;;;11.70;99.70;;;;;;5015005;28;20033;-52
2022/02/17 06:18:04;;;;;;;15.68;3.53;;;11.70;99.70;;;;;;5061913;22;20421;-48
2022/02/17 06:20:30;;;;;;;20.00;4.32;;;11.60;99.30;;;;;;5054408;28;20029;-46
2022/02/17 06:22:55;;;;;;;14.68;4.32;;;11.60;99.40;;;;;;5053927;28;20083;-47
2022/02/17 06:25:21;;;;;;;14.52;3.53;;;11.60;99.20;;;;;;5054225;28;20389;-46
2022/02/17 06:27:50;;;;;;;18.98;4.43;;;11.60;99.30;;;;;;5054055;28;20029;-48
2022/02/17 06:30:22;;;;;;;22.08;5.10;;;11.50;99.30;;;;;;5054268;28;20029;-48
2022/02/17 06:32:55;;;;;;;22.13;4.43;;;11.50;99.20;;;;;;5053850;28;20115;-48
2022/02/17 06:35:27;;;;;;;23.98;3.60;;;11.40;99.00;;;;;;5054044;28;20058;-50
2022/02/17 06:37:53;;;;;;;24.08;6.85;;;11.40;99.50;;;;;;5053945;28;20615;-46
2022/02/17 06:40:20;;;;;;;21.00;3.97;;;11.40;99.20;;;;;;5053819;28;20119;-47
2022/02/17 06:42:46;;;;;;;23.52;4.15;;;11.40;99.30;;;;;;5052557;28;20083;-46
2022/02/17 06:45:13;;;;;;;17.88;3.58;;;11.40;99.40;;;;;;5052989;28;20029;-44
2022/02/17 06:47:39;;;;;;;19.40;3.97;;;11.30;99.70;;;;;;5053833;28;20048;-46
2022/02/17 06:50:06;;;;;;;15.82;3.95;;;11.30;99.40;;;;;;5053879;28;20615;-46
2022/02/17 06:52:32;;;;;;;13.88;3.90;;;11.30;99.60;;;;;;5053698;28;20104;-45
2022/02/17 06:54:58;;;;;;;14.52;4.90;;;11.30;99.50;;;;;;5053859;28;20484;-50
2022/02/17 06:57:23;;;;;;;21.02;4.65;;;11.30;99.60;;;;;;5053578;28;20064;-49
2022/02/17 06:59:53;;;;;;;19.63;4.57;;;11.30;99.60;;;;;;5053631;28;20032;-48
2022/02/17 07:02:26;;;;;;;24.63;4.28;;;11.30;99.60;;;;;;5053035;28;20087;-46
2022/02/17 07:04:52;;;;;;;22.30;3.97;;;11.30;99.70;;;;;;5053382;28;20063;-47
2022/02/17 07:07:18;;;;;;;21.60;4.82;;;11.40;99.70;;;;;;5053449;28;20033;-48
2022/02/17 07:09:44;;;;;;;20.98;4.43;;;11.40;99.60;;;;;;5052252;28;20511;-48
2022/02/17 07:12:10;;;;;;;23.88;4.95;;;11.30;99.60;;;;;;5053241;28;20094;-47
2022/02/17 07:14:37;;;;;;;14.25;3.70;;;11.30;99.60;;;;;;5052968;28;20029;-47
2022/02/17 07:17:03;;;;;;;27.33;4.93;;;11.30;99.70;;;;;;5053279;28;20029;-50
2022/02/17 07:19:28;;;;;;;21.27;4.88;;;11.30;99.50;;;;;;5052306;28;20048;-48
2022/02/17 07:21:54;;;;;;;20.80;4.38;;;11.40;99.60;;;;;;5053524;28;20028;-50
2022/02/17 07:24:20;;;;;;;27.17;4.28;;;11.40;99.40;;;;;;5052952;28;20400;-47
2022/02/17 07:26:46;;;;;;;18.95;5.10;;;11.50;99.10;;;;;;5053423;28;20119;-49
2022/02/17 07:29:13;;;;;;;24.70;4.97;;;11.40;99.20;;;;;;5053243;28;20530;-50
2022/02/17 07:31:39;;;;;;;24.35;4.05;;;11.50;99.60;;;;;;5053170;28;20457;-50
2022/02/17 07:34:05;;;;;;;21.10;4.78;;;11.50;99.60;;;;;;5052820;28;20036;-48
2022/02/17 07:36:31;;;;;;;27.63;4.75;;;11.50;99.70;;;;;;5052826;28;20024;-49
2022/02/17 07:38:57;;;;;;;23.02;4.93;;;11.50;99.40;;;;;;5053059;28;20396;-46
2022/02/17 07:41:23;;;;;;;20.92;4.65;;;11.50;99.50;;;;;;5052651;28;20150;-50
2022/02/17 07:43:49;;;;;;;22.30;5.18;;;11.50;99.40;;;;;;5052177;28;20021;-49
2022/02/17 07:46:15;;;;;;;20.10;5.10;;;11.50;99.50;;;;;;5050183;28;20024;-46
2022/02/17 07:48:40;;;;;;;24.63;5.72;;;11.60;99.30;;;;;;5040395;28;20029;-48
2022/02/17 07:51:06;;;;;;;27.75;5.57;;;11.60;99.90;;;;;;5051998;28;20033;-48
2022/02/17 07:53:32;;;;;;;20.08;5.47;;;11.50;99.90;;;;;;5038606;28;20039;-48
2022/02/17 07:55:58;;;;;;;26.58;5.88;;;11.60;99.90;;;;;;5032639;28;20404;-45
2022/02/17 07:58:25;;;;;;;21.95;4.53;;;11.60;99.90;;;;;;5052526;28;20017;-48
2022/02/17 08:00:51;;;;;;;25.42;5.35;;;11.60;99.90;;;;;;5051399;28;20036;-50
2022/02/17 08:03:16;;;;;;;21.20;5.43;;;11.60;99.90;;;;;;5046587;28;20017;-49
2022/02/17 08:05:42;;;;;;;25.60;5.45;;;11.50;99.90;;;;;;5051479;28;20032;-49
2022/02/17 08:08:09;;;;;;;19.90;4.85;;;11.60;99.90;;;;;;5052499;28;20476;-48
2022/02/17 08:10:35;;;;;;;20.73;6.35;;;11.50;99.90;;;;;;5051781;28;20389;-51
2022/02/17 08:13:02;;;;;;;24.38;4.20;;;11.50;99.90;;;;;;5051884;28;20029;-48
2022/02/17 08:15:28;;;;;;;23.73;4.32;;;11.50;99.90;;;;;;5042345;28;20031;-50
2022/02/17 08:17:53;;;;;;;23.95;5.53;;;11.50;99.90;;;;;;5032033;28;20037;-51
2022/02/17 08:20:19;;;;;;;25.75;5.38;;;11.40;99.90;;;;;;5030969;28;20079;-48
2022/02/17 08:22:52;;;;;;;27.08;4.85;;;11.40;99.90;;;;;;5030752;28;20032;-55
2022/02/17 08:25:20;;;;;;;21.15;4.50;;;11.50;99.90;;;;;;5038916;28;20078;-52
2022/02/17 08:27:49;;;;;;;19.40;4.82;;;11.60;99.90;;;;;;5051580;28;20036;-49
2022/02/17 08:30:15;;;;;;;27.63;6.13;;;11.80;99.90;;;;;;5043458;28;20378;-53
2022/02/17 08:32:41;;;;;;;23.98;5.90;;;11.90;99.20;;;;;;5031988;28;20404;-51
2022/02/17 08:35:08;;;;;;;20.35;5.40;;;11.90;98.30;;;;;;5033549;28;20033;-49
2022/02/17 08:37:34;;;;;;;25.60;4.68;;;12.00;97.60;;;;;;5050473;28;20029;-47
2022/02/17 08:40:00;;;;;;;19.10;4.72;;;12.00;97.60;;;;;;5051431;28;20112;-51
2022/02/17 08:42:26;;;;;;;24.00;4.80;;;12.00;98.00;;;;;;5051568;28;20108;-50
2022/02/17 08:44:51;;;;;;;26.05;4.90;;;12.00;98.10;;;;;;5051488;28;20545;-51
2022/02/17 08:47:18;;;;;;;29.65;7.20;;;12.00;98.10;;;;;;5051597;28;20099;-52
2022/02/17 08:49:44;;;;;;;28.15;4.93;;;12.10;98.00;;;;;;5051657;28;20048;-49
2022/02/17 08:52:10;;;;;;;23.33;5.60;;;12.10;97.70;;;;;;5051520;28;20492;-49
2022/02/17 08:54:36;;;;;;;27.70;5.70;;;12.20;97.60;;;;;;5050949;28;20107;-49
2022/02/17 08:57:02;;;;;;;24.63;5.43;;;12.20;96.90;;;;;;5051652;28;20467;-52
2022/02/17 08:59:28;;;;;;;25.45;5.10;;;12.30;97.40;;;;;;5051553;28;20029;-51
2022/02/17 09:01:54;;;;;;;23.60;5.55;;;12.30;97.90;;;;;;5051526;28;20047;-49
2022/02/17 09:04:20;;;;;;;27.38;6.43;;;12.30;98.00;;;;;;5051079;28;20027;-50
2022/02/17 09:06:50;;;;;;;17.85;4.90;;;12.40;97.30;;;;;;5051325;28;20079;-51
2022/02/17 09:09:16;;;;;;;22.63;4.75;;;12.40;97.60;;;;;;5050908;28;20043;-50
2022/02/17 09:11:42;;;;;;;21.92;4.28;;;12.40;98.10;;;;;;5050544;28;20025;-49
2022/02/17 09:14:07;;;;;;;20.58;4.78;;;12.30;97.40;;;;;;5051361;28;20033;-53
2022/02/17 09:16:34;;;;;;;31.20;5.43;;;12.20;97.70;;;;;;5050986;28;20544;-53
2022/02/17 09:18:59;;;;;;;19.05;4.15;;;12.20;97.80;;;;;;5051492;28;20100;-52
2022/02/17 09:21:25;;;;;;;27.10;5.70;;;12.20;97.70;;;;;;5051372;28;20108;-51
2022/02/17 09:23:50;;;;;;;23.42;4.40;;;12.20;98.50;;;;;;5050999;28;20021;-50
2022/02/17 09:26:16;;;;;;;29.88;5.63;;;12.30;98.30;;;;;;5051371;28;20086;-50
2022/02/17 09:28:43;;;;;;;28.17;6.05;;;12.60;97.60;;;;;;5051109;28;20033;-53
2022/02/17 09:31:12;;;;;;;31.10;5.80;;;12.60;97.70;;;;;;5051237;28;20074;-52
2022/02/17 09:33:38;;;;;;;22.40;5.50;;;12.30;98.30;;;;;;5050787;28;20079;-53
2022/02/17 09:36:04;;;;;;;27.58;4.50;;;12.20;98.90;;;;;;5050970;28;20048;-53
2022/02/17 09:38:30;;;;;;;27.15;5.65;;;12.00;99.60;;;;;;5050790;28;20033;-54
2022/02/17 09:40:55;;;;;;;20.70;4.93;;;11.80;98.70;;;;;;5049694;28;20025;-50
2022/02/17 09:43:24;;;;;;;12.65;3.25;;;11.60;99.10;;;;;;5050490;28;20048;-50
2022/02/17 09:45:51;;;;;;;22.42;4.45;;;11.60;99.40;;;;;;5050987;28;20489;-50
2022/02/17 09:48:17;;;;;;;24.15;5.43;;;11.50;99.70;;;;;;5050900;28;20025;-55
2022/02/17 09:50:43;;;;;;;20.13;3.90;;;11.50;99.90;;;;;;5050925;28;20611;-51
2022/02/17 09:53:09;;;;;;;18.88;3.47;;;11.90;99.70;;;;;;5048919;28;20488;-53
2022/02/17 09:55:35;;;;;;;14.98;4.00;;;12.20;99.40;;;;;;5050918;28;20036;-55
2022/02/17 09:58:01;;;;;;;14.63;4.20;;;12.70;98.90;;;;;;5051014;28;20032;-54
2022/02/17 10:00:26;;;;;;;23.33;5.28;;;12.60;99.00;;;;;;5050791;28;20021;-50
2022/02/17 10:02:52;;;;;;;20.42;5.35;;;12.40;99.30;;;;;;5050284;28;20389;-49
2022/02/17 10:05:18;;;;;;;22.08;5.78;;;12.40;99.90;;;;;;5049618;28;20021;-51
2022/02/17 10:07:44;;;;;;;28.60;4.70;;;12.40;99.90;;;;;;5051050;28;20108;-50
2022/02/17 10:10:13;;;;;;;19.33;4.53;;;12.30;99.90;;;;;;5049504;28;20053;-54
2022/02/17 10:13:01;;;;;;;18.05;3.75;;;12.20;99.90;;;;;;5050611;28;20025;-49
2022/02/17 10:15:37;;;;;;;17.60;4.20;;;11.90;99.90;;;;;;5050797;28;20063;-51
2022/02/17 10:18:14;;;;;;;23.13;4.57;;;11.90;99.90;;;;;;5049404;28;20025;-54
2022/02/17 10:20:52;;;;;;;25.15;4.47;;;11.60;99.90;;;;;;5051944;28;20028;-53
2022/02/17 10:23:18;;;;;;;17.63;3.47;;;11.30;99.90;;;;;;5053295;28;20068;-52
2022/02/17 10:26:04;;;;;;;22.05;4.22;;;11.40;99.90;;;;;;5053044;28;20024;-60
2022/02/17 10:28:37;;;;;;;26.35;5.88;;;11.40;99.90;;;;;;5050340;28;20029;-46
2022/02/17 10:31:04;;;;;;;21.40;5.00;;;11.40;99.90;;;;;;5032876;28;20108;-53
2022/02/17 10:33:43;;;;;;;23.63;5.20;;;11.90;99.90;;;;;;5034984;28;20032;-48
2022/02/17 10:36:10;;;;;;;25.70;5.80;;;12.50;99.90;;;;;;5053683;28;20131;-47
2022/02/17 10:38:36;;;;;;;21.30;4.35;;;12.90;99.90;;;;;;5053698;28;20554;-48
2022/02/17 10:41:02;;;;;;;18.15;3.90;;;12.90;99.10;;;;;;5053622;28;20025;-53
2022/02/17 10:43:30;;;;;;;24.42;5.28;;;12.90;98.30;;;;;;5051317;28;20451;-48
2022/02/17 10:46:04;;;;;;;29.08;4.65;;;12.90;97.30;;;;;;5048041;28;20014;-55
2022/02/17 10:48:30;;;;;;;22.67;4.70;;;13.10;96.60;;;;;;5049183;28;20040;-53
2022/02/17 10:51:15;;;;;;;16.38;4.47;;;13.20;96.20;;;;;;5035074;28;20053;-50
2022/02/17 10:54:01;;;;;;;18.13;4.97;;;13.20;95.30;;;;;;5042729;28;20070;-50
2022/02/17 10:56:31;;;;;;;21.48;4.13;;;13.60;95.80;;;;;;5049515;28;20295;-51
2022/02/17 10:59:02;;;;;;;14.90;4.70;;;13.80;95.20;;;;;;5033826;28;20485;-50
2022/02/17 11:01:28;;;;;;;23.17;4.03;;;13.60;94.00;;;;;;5051089;28;20035;-52
2022/02/17 11:03:54;;;;;;;22.00;4.65;;;13.40;94.50;;;;;;5053645;28;20059;-53
2022/02/17 11:06:21;;;;;;;28.45;5.38;;;13.10;93.70;;;;;;5053759;28;20048;-50
2022/02/17 11:08:48;;;;;;;13.73;4.22;;;13.00;92.70;;;;;;5053761;28;20031;-55
2022/02/17 11:11:14;;;;;;;24.98;4.57;;;12.70;92.70;;;;;;5053591;28;20402;-51
2022/02/17 11:13:47;;;;;;;16.88;4.78;;;12.50;93.10;;;;;;5053093;28;20100;-51
2022/02/17 11:16:15;;;;;;;25.70;5.15;;;12.40;93.20;;;;;;5053380;28;20453;-53
2022/02/17 11:18:42;;;;;;;22.63;5.78;;;12.50;94.20;;;;;;5053211;28;20033;-51
2022/02/17 11:21:14;;;;;;;22.27;4.82;;;12.60;95.40;;;;;;5053439;28;20035;-53
2022/02/17 11:23:41;;;;;;;23.95;5.53;;;12.40;95.50;;;;;;5053200;28;20017;-55
2022/02/17 11:26:22;;;;;;;29.77;4.88;;;12.40;96.00;;;;;;5053365;28;20124;-50
2022/02/17 11:28:48;;;;;;;22.67;4.90;;;12.40;96.10;;;;;;5053266;28;20029;-52
2022/02/17 11:31:14;;;;;;;20.63;5.05;;;12.50;96.10;;;;;;5052840;28;20472;-53
2022/02/17 11:33:41;;;;;;;19.02;4.43;;;12.60;96.50;;;;;;5052935;28;20377;-49
2022/02/17 11:36:21;;;;;;;18.08;4.55;;;12.60;96.10;;;;;;5053162;28;20412;-51
2022/02/17 11:38:55;;;;;;;22.40;4.55;;;12.60;96.50;;;;;;5053091;28;20104;-49
2022/02/17 11:41:23;;;;;;;19.50;4.18;;;12.50;96.70;;;;;;5053025;28;20044;-53
2022/02/17 11:43:52;;;;;;;28.95;5.85;;;12.60;97.50;;;;;;5052390;28;20099;-50
2022/02/17 11:46:43;;;;;;;18.50;4.38;;;12.60;97.90;;;;;;5052908;28;20082;-50
2022/02/17 11:49:28;;;;;;;25.52;4.47;;;12.50;98.60;;;;;;5044932;28;20009;-52
2022/02/17 11:52:14;;;;;;;20.67;4.23;;;12.50;99.30;;;;;;5031809;28;20022;-49
2022/02/17 11:54:41;;;;;;;17.38;4.53;;;12.60;99.30;;;;;;5032785;28;20105;-49
2022/02/17 11:57:33;;;;;;;16.27;3.58;;;12.60;99.60;;;;;;5032604;28;20025;-51
2022/02/17 12:00:25;;;;;;;16.45;3.60;;;12.60;99.80;;;;;;5037416;28;20037;-50
2022/02/17 12:02:54;;;;;;;16.83;3.25;;;12.70;99.90;;;;;;5050666;28;20028;-52
2022/02/17 12:05:20;;;;;;;19.17;4.88;;;12.70;99.90;;;;;;5052306;28;20020;-49
2022/02/17 12:07:46;;;;;;;15.27;3.72;;;12.70;99.90;;;;;;5051059;28;20055;-50
2022/02/17 12:10:31;;;;;;;17.33;3.30;;;12.70;99.80;;;;;;5043707;28;20492;-51
2022/02/17 12:12:57;;;;;;;26.77;4.80;;;12.60;98.70;;;;;;5033887;28;20507;-45
2022/02/17 12:15:23;;;;;;;18.75;4.30;;;12.50;98.80;;;;;;5051865;28;20035;-46
2022/02/17 12:17:49;;;;;;;14.65;3.03;;;12.50;98.70;;;;;;5052666;28;20029;-48
2022/02/17 12:20:20;;;;;;;22.65;4.50;;;12.40;98.50;;;;;;5039911;28;20092;-46
2022/02/17 12:22:58;;;;;;;12.52;3.42;;;12.30;98.40;;;;;;5036012;28;20021;-51
2022/02/17 12:25:26;;;;;;;16.70;3.78;;;12.30;98.20;;;;;;5049410;28;20059;-50
2022/02/17 12:27:55;;;;;;;13.20;3.20;;;12.30;97.90;;;;;;5051941;28;20021;-48
2022/02/17 12:30:33;;;;;;;8.68;2.92;;;12.20;96.80;;;;;;5047360;28;20400;-47
2022/02/17 12:33:19;;;;;;;4.15;1.88;;;11.90;97.70;;;;;;5049811;28;20515;-50
2022/02/17 12:35:58;;;;;;;6.20;2.03;;;11.60;99.90;;;;;;5036241;22;20580;-48
2022/02/17 12:38:29;;;;;;;6.15;1.58;;;11.20;99.90;;;;;;5011889;28;20030;-46
2022/02/17 12:40:55;;;;;;;5.18;1.73;;;10.80;99.90;;;;;;5012269;28;20022;-50
2022/02/17 12:43:35;;;;;;;7.57;2.15;;;10.60;99.90;;;;;;5011016;28;20402;-50